メインページ
METAR-TAF:

METAR-TAF

空港 :

コネ, ニューカレドニア

緯度: 21-03-12S, 経度: 164-50-18E, 海抜: 7m

METAR: 見つかりません

時間: 09:39 (22:39 UTC)

予報

当レポートは5時間39分前の17:00(UTC)に作成
予報は11日の 18時(UTC)から 12日の 18時(UTC)まで有効
東/北東の風 5kt
視程10km以上
高度4000ftの雲は散在している
高度6000ftの雲は散在している
11日の 22時(UTC)から 11日の 24時(UTC)まで徐々に
南/南東の風 10kt
12日の 06時(UTC)から 12日の 08時(UTC)まで徐々に
東/北東の風 5kt

TAF: NWWD 111700Z 1118/1218 07005KT 9999 SCT040 SCT060 BECMG 1122/1124 16010KT BECMG 1206/1208 07005KT

4,000以上の空港の気象観測と天気予報(METAR報とTAF報)

利用可能な観測所は地図上に黄色い丸と赤い丸で示す。

丸の上にカーソルを重ねると観測所名を参照できる。

次にクリックすると気象観測と天気予報を参照できる。

マップの切り替え:黒色「×」印の緑ボタンをクリックして拡大、「-」印の緑ボタンをクリックして縮小、緑色の三角印をクリックして隣りの地図に切り替え


METAR-TAF: